Decoded Metar for GCTS (TENERIFE in SPAIN) (IATA:TFS) | Meteo·Mobile Aviation Weather
aviador You're here:

GCTS Decoded Metar

TENERIFE in SPAIN
Report Time2019-09-17 00:30:00
UTC Time2019-09-17 00:36:44
Flight Rules mvfr MVFR
Wind080° at 05 kt
W.Decomp.*RWY 08: 5.0 kt HW 0.5 kt RCW
Visibility9999 m
Phenomena:N/A
Clouds:Broken 013 Hf
Broken 018 Hf
Expected CloudBase > 800 ft AGL from Temp-Dew spread
Ceiling1,300 ft
Temp23°C (ISA +8)
Dew Point21°C (89% RH)
QNH1017 hPa
Density Alt1,414 ft
Elevation236 ft
Report Wrong Elevation
Raw Report
METAR GCTS 170030Z 08005KT 9999 BKN013 BKN018 23/21 Q1017 NOSIG=

Extra information for GCTS:More info

Metar Taf Metar & Taf Last 4 Metars F.Rules Stats Wind Profile Meteogram Temp Stats Airport Information Weather charts Add Link Nearby VenuesMetar ALERT Operation Metar Decoded Social comments